sensor_id;sensor_type;location;lat;lon;timestamp;temperature;humidity
52397;DHT22;38322;53.108;6.308;2023-02-15T06:02:43;0.50;99.90
52397;DHT22;38322;53.108;6.308;2023-02-15T06:05:09;0.50;99.90
52397;DHT22;38322;53.108;6.308;2023-02-15T06:07:35;0.50;99.90
52397;DHT22;38322;53.108;6.308;2023-02-15T06:10:01;0.50;99.90
52397;DHT22;38322;53.108;6.308;2023-02-15T06:12:27;0.50;99.90
52397;DHT22;38322;53.108;6.308;2023-02-15T06:14:52;0.50;99.90
52397;DHT22;38322;53.108;6.308;2023-02-15T06:17:18;0.50;99.90
52397;DHT22;38322;53.108;6.308;2023-02-15T06:19:44;0.50;99.90
52397;DHT22;38322;53.108;6.308;2023-02-15T06:22:10;0.60;99.90
52397;DHT22;38322;53.108;6.308;2023-02-15T06:24:36;0.60;99.90
52397;DHT22;38322;53.108;6.308;2023-02-15T06:27:01;0.60;99.90
52397;DHT22;38322;53.108;6.308;2023-02-15T06:29:27;0.60;99.90
52397;DHT22;38322;53.108;6.308;2023-02-15T06:31:53;0.60;99.90
52397;DHT22;38322;53.108;6.308;2023-02-15T06:34:19;0.50;99.90
52397;DHT22;38322;53.108;6.308;2023-02-15T06:36:45;0.50;99.90
52397;DHT22;38322;53.108;6.308;2023-02-15T06:39:10;0.50;99.90
52397;DHT22;38322;53.108;6.308;2023-02-15T06:41:36;0.50;99.90
52397;DHT22;38322;53.108;6.308;2023-02-15T06:44:02;0.50;99.90
52397;DHT22;38322;53.108;6.308;2023-02-15T06:46:28;0.40;99.90
52397;DHT22;38322;53.108;6.308;2023-02-15T06:48:54;0.40;99.90
52397;DHT22;38322;53.108;6.308;2023-02-15T06:51:20;0.40;99.90
52397;DHT22;38322;53.108;6.308;2023-02-15T06:53:45;0.40;99.90
52397;DHT22;38322;53.108;6.308;2023-02-15T06:56:11;0.40;99.90
52397;DHT22;38322;53.108;6.308;2023-02-15T06:58:39;0.40;99.90
52397;DHT22;38322;53.108;6.308;2023-02-15T07:01:06;0.40;99.90
52397;DHT22;38322;53.108;6.308;2023-02-15T07:03:32;0.40;99.90
52397;DHT22;38322;53.108;6.308;2023-02-15T07:05:59;0.40;99.90
52397;DHT22;38322;53.108;6.308;2023-02-15T07:08:26;0.40;99.90
52397;DHT22;38322;53.108;6.308;2023-02-15T07:10:53;0.40;99.90
52397;DHT22;38322;53.108;6.308;2023-02-15T07:13:20;0.40;99.90
52397;DHT22;38322;53.108;6.308;2023-02-15T07:15:47;0.40;99.90
52397;DHT22;38322;53.108;6.308;2023-02-15T07:18:13;0.40;99.90
52397;DHT22;38322;53.108;6.308;2023-02-15T07:20:39;0.40;99.90
52397;DHT22;38322;53.108;6.308;2023-02-15T07:23:07;0.50;99.90
52397;DHT22;38322;53.108;6.308;2023-02-15T07:25:34;0.50;99.90
52397;DHT22;38322;53.108;6.308;2023-02-15T07:28:02;0.50;99.90
52397;DHT22;38322;53.108;6.308;2023-02-15T07:30:29;0.60;99.90
52397;DHT22;38322;53.108;6.308;2023-02-15T07:32:57;0.70;99.90
52397;DHT22;38322;53.108;6.308;2023-02-15T07:35:49;0.70;99.90
52397;DHT22;38322;53.108;6.308;2023-02-15T07:38:16;0.70;99.90
52397;DHT22;38322;53.108;6.308;2023-02-15T07:40:42;0.80;99.90
52397;DHT22;38322;53.108;6.308;2023-02-15T07:43:08;0.80;99.90
52397;DHT22;38322;53.108;6.308;2023-02-15T07:45:34;0.80;99.90
52397;DHT22;38322;53.108;6.308;2023-02-15T07:48:02;0.90;99.90
52397;DHT22;38322;53.108;6.308;2023-02-15T07:50:28;0.90;99.90
52397;DHT22;38322;53.108;6.308;2023-02-15T07:52:53;0.90;99.90
52397;DHT22;38322;53.108;6.308;2023-02-15T07:55:19;1.00;99.90
52397;DHT22;38322;53.108;6.308;2023-02-15T07:57:46;1.00;99.90
52397;DHT22;38322;53.108;6.308;2023-02-15T08:00:14;1.10;99.90
52397;DHT22;38322;53.108;6.308;2023-02-15T08:02:41;1.10;99.90
52397;DHT22;38322;53.108;6.308;2023-02-15T08:05:07;1.20;99.90
52397;DHT22;38322;53.108;6.308;2023-02-15T08:07:33;1.20;99.90
52397;DHT22;38322;53.108;6.308;2023-02-15T08:09:59;1.30;99.90
52397;DHT22;38322;53.108;6.308;2023-02-15T08:12:26;1.40;99.90
52397;DHT22;38322;53.108;6.308;2023-02-15T08:14:52;1.40;99.90
52397;DHT22;38322;53.108;6.308;2023-02-15T08:17:18;1.50;99.90
52397;DHT22;38322;53.108;6.308;2023-02-15T08:19:44;1.60;99.90
52397;DHT22;38322;53.108;6.308;2023-02-15T08:22:13;1.60;99.90
52397;DHT22;38322;53.108;6.308;2023-02-15T08:24:40;1.70;99.90
52397;DHT22;38322;53.108;6.308;2023-02-15T08:27:08;1.80;99.90
52397;DHT22;38322;53.108;6.308;2023-02-15T08:29:36;1.90;99.90
52397;DHT22;38322;53.108;6.308;2023-02-15T08:32:08;1.90;99.90
52397;DHT22;38322;53.108;6.308;2023-02-15T08:34:38;2.00;99.90
52397;DHT22;38322;53.108;6.308;2023-02-15T08:37:04;2.00;99.90
52397;DHT22;38322;53.108;6.308;2023-02-15T08:39:31;2.10;99.90
52397;DHT22;38322;53.108;6.308;2023-02-15T08:41:57;2.10;99.90
52397;DHT22;38322;53.108;6.308;2023-02-15T08:44:23;2.20;99.90
52397;DHT22;38322;53.108;6.308;2023-02-15T08:46:49;2.20;99.90
52397;DHT22;38322;53.108;6.308;2023-02-15T08:49:18;2.30;99.90
52397;DHT22;38322;53.108;6.308;2023-02-15T08:51:45;2.40;99.90
52397;DHT22;38322;53.108;6.308;2023-02-15T08:54:14;2.50;99.90
52397;DHT22;38322;53.108;6.308;2023-02-15T08:56:41;2.60;99.90
52397;DHT22;38322;53.108;6.308;2023-02-15T08:59:13;2.60;99.90
52397;DHT22;38322;53.108;6.308;2023-02-15T09:01:39;2.70;99.90
52397;DHT22;38322;53.108;6.308;2023-02-15T09:04:06;2.70;99.90
52397;DHT22;38322;53.108;6.308;2023-02-15T09:06:39;2.80;99.90
52397;DHT22;38322;53.108;6.308;2023-02-15T09:09:06;2.80;99.90
52397;DHT22;38322;53.108;6.308;2023-02-15T09:11:37;2.90;99.90
52397;DHT22;38322;53.108;6.308;2023-02-15T09:14:05;2.90;99.90
52397;DHT22;38322;53.108;6.308;2023-02-15T09:16:35;3.00;99.90
52397;DHT22;38322;53.108;6.308;2023-02-15T09:19:01;3.10;99.90
52397;DHT22;38322;53.108;6.308;2023-02-15T09:21:28;3.20;99.90
52397;DHT22;38322;53.108;6.308;2023-02-15T09:24:00;3.30;99.90
52397;DHT22;38322;53.108;6.308;2023-02-15T09:26:28;3.40;99.90
52397;DHT22;38322;53.108;6.308;2023-02-15T09:28:56;3.50;99.90
52397;DHT22;38322;53.108;6.308;2023-02-15T09:31:25;3.70;99.90
52397;DHT22;38322;53.108;6.308;2023-02-15T09:33:51;3.80;99.90
52397;DHT22;38322;53.108;6.308;2023-02-15T09:36:19;3.90;99.90
52397;DHT22;38322;53.108;6.308;2023-02-15T09:38:47;4.00;99.90
52397;DHT22;38322;53.108;6.308;2023-02-15T09:46:20;4.20;99.90
52397;DHT22;38322;53.108;6.308;2023-02-15T09:48:56;4.30;99.90
52397;DHT22;38322;53.108;6.308;2023-02-15T09:51:36;4.40;99.90
52397;DHT22;38322;53.108;6.308;2023-02-15T09:56:48;4.50;99.90
52397;DHT22;38322;53.108;6.308;2023-02-15T09:59:19;4.50;99.90
52397;DHT22;38322;53.108;6.308;2023-02-15T10:04:35;4.60;99.90
52397;DHT22;38322;53.108;6.308;2023-02-15T10:07:33;4.70;99.90
52397;DHT22;38322;53.108;6.308;2023-02-15T10:10:39;4.80;99.90
52397;DHT22;38322;53.108;6.308;2023-02-15T10:13:15;4.90;99.90
52397;DHT22;38322;53.108;6.308;2023-02-15T10:15:53;5.00;99.90
52397;DHT22;38322;53.108;6.308;2023-02-15T10:18:37;5.10;99.90
52397;DHT22;38322;53.108;6.308;2023-02-15T10:23:46;5.20;99.90
52397;DHT22;38322;53.108;6.308;2023-02-15T10:26:18;5.30;99.90
52397;DHT22;38322;53.108;6.308;2023-02-15T10:29:00;5.30;99.90
52397;DHT22;38322;53.108;6.308;2023-02-15T10:31:50;5.40;99.90
52397;DHT22;38322;53.108;6.308;2023-02-15T10:34:18;5.50;99.90
52397;DHT22;38322;53.108;6.308;2023-02-15T10:36:49;5.60;99.90
52397;DHT22;38322;53.108;6.308;2023-02-15T11:06:09;6.80;99.90
52397;DHT22;38322;53.108;6.308;2023-02-15T11:08:43;6.90;99.90
52397;DHT22;38322;53.108;6.308;2023-02-15T11:11:15;7.00;99.90
52397;DHT22;38322;53.108;6.308;2023-02-15T11:13:46;7.10;99.90
52397;DHT22;38322;53.108;6.308;2023-02-15T11:16:18;7.20;99.90
52397;DHT22;38322;53.108;6.308;2023-02-15T11:19:01;7.30;99.90
52397;DHT22;38322;53.108;6.308;2023-02-15T11:21:34;7.40;99.90
52397;DHT22;38322;53.108;6.308;2023-02-15T11:24:10;7.50;99.90
52397;DHT22;38322;53.108;6.308;2023-02-15T11:26:43;7.60;99.90
52397;DHT22;38322;53.108;6.308;2023-02-15T11:29:40;7.60;99.90
52397;DHT22;38322;53.108;6.308;2023-02-15T11:37:18;7.70;99.90
52397;DHT22;38322;53.108;6.308;2023-02-15T11:39:46;7.80;99.90
52397;DHT22;38322;53.108;6.308;2023-02-15T11:42:20;7.90;99.90
52397;DHT22;38322;53.108;6.308;2023-02-15T11:45:00;7.90;99.90
52397;DHT22;38322;53.108;6.308;2023-02-15T11:47:27;8.10;99.90
52397;DHT22;38322;53.108;6.308;2023-02-15T11:49:53;8.10;99.90
52397;DHT22;38322;53.108;6.308;2023-02-15T11:52:19;8.30;99.90
52397;DHT22;38322;53.108;6.308;2023-02-15T11:54:48;8.40;99.90
52397;DHT22;38322;53.108;6.308;2023-02-15T11:57:37;8.50;99.90
52397;DHT22;38322;53.108;6.308;2023-02-15T12:00:16;8.50;99.90
52397;DHT22;38322;53.108;6.308;2023-02-15T12:02:52;8.40;99.90
52397;DHT22;38322;53.108;6.308;2023-02-15T12:05:22;8.50;99.90
52397;DHT22;38322;53.108;6.308;2023-02-15T12:07:55;8.50;99.90
52397;DHT22;38322;53.108;6.308;2023-02-15T12:10:29;8.60;99.90
52397;DHT22;38322;53.108;6.308;2023-02-15T12:13:11;8.60;99.90
52397;DHT22;38322;53.108;6.308;2023-02-15T12:15:41;8.70;99.90
52397;DHT22;38322;53.108;6.308;2023-02-15T12:18:20;8.70;99.90
52397;DHT22;38322;53.108;6.308;2023-02-15T12:20:48;8.70;99.90
52397;DHT22;38322;53.108;6.308;2023-02-15T12:23:15;8.70;99.90
52397;DHT22;38322;53.108;6.308;2023-02-15T12:25:43;8.80;99.90
52397;DHT22;38322;53.108;6.308;2023-02-15T12:28:32;8.80;99.90
52397;DHT22;38322;53.108;6.308;2023-02-15T12:31:01;8.90;99.90
52397;DHT22;38322;53.108;6.308;2023-02-15T12:33:41;9.00;99.90
52397;DHT22;38322;53.108;6.308;2023-02-15T12:36:20;9.00;99.90
52397;DHT22;38322;53.108;6.308;2023-02-15T12:41:44;9.10;99.90
52397;DHT22;38322;53.108;6.308;2023-02-15T12:44:19;9.20;99.90
52397;DHT22;38322;53.108;6.308;2023-02-15T12:47:03;9.20;99.90
52397;DHT22;38322;53.108;6.308;2023-02-15T12:49:34;9.20;99.90
52397;DHT22;38322;53.108;6.308;2023-02-15T12:52:05;9.30;99.90
52397;DHT22;38322;53.108;6.308;2023-02-15T12:54:41;9.30;99.90
52397;DHT22;38322;53.108;6.308;2023-02-15T12:59:49;9.30;99.90
52397;DHT22;38322;53.108;6.308;2023-02-15T13:02:21;9.30;99.90
52397;DHT22;38322;53.108;6.308;2023-02-15T13:04:49;9.30;99.90
52397;DHT22;38322;53.108;6.308;2023-02-15T13:07:15;9.30;99.90
52397;DHT22;38322;53.108;6.308;2023-02-15T13:09:42;9.30;99.90
52397;DHT22;38322;53.108;6.308;2023-02-15T13:12:15;9.40;99.90
52397;DHT22;38322;53.108;6.308;2023-02-15T13:14:45;9.50;99.90
52397;DHT22;38322;53.108;6.308;2023-02-15T13:17:12;9.50;99.90
52397;DHT22;38322;53.108;6.308;2023-02-15T13:19:48;9.60;99.90
52397;DHT22;38322;53.108;6.308;2023-02-15T13:22:27;9.60;99.90
52397;DHT22;38322;53.108;6.308;2023-02-15T13:24:58;9.60;99.90
52397;DHT22;38322;53.108;6.308;2023-02-15T13:27:34;9.60;99.90
52397;DHT22;38322;53.108;6.308;2023-02-15T13:30:03;9.60;99.90
52397;DHT22;38322;53.108;6.308;2023-02-15T13:32:38;9.60;99.90
52397;DHT22;38322;53.108;6.308;2023-02-15T13:35:14;9.70;99.90
52397;DHT22;38322;53.108;6.308;2023-02-15T13:40:13;9.70;99.90
52397;DHT22;38322;53.108;6.308;2023-02-15T13:42:46;9.80;99.90
52397;DHT22;38322;53.108;6.308;2023-02-15T13:45:36;9.80;99.90
52397;DHT22;38322;53.108;6.308;2023-02-15T13:53:48;9.70;99.90
52397;DHT22;38322;53.108;6.308;2023-02-15T14:01:56;9.90;99.90
52397;DHT22;38322;53.108;6.308;2023-02-15T14:12:49;9.90;99.90
52397;DHT22;38322;53.108;6.308;2023-02-15T14:15:32;9.80;99.90
52397;DHT22;38322;53.108;6.308;2023-02-15T14:18:22;9.90;99.90
52397;DHT22;38322;53.108;6.308;2023-02-15T14:23:48;9.80;99.90
52397;DHT22;38322;53.108;6.308;2023-02-15T14:29:16;9.80;99.90
52397;DHT22;38322;53.108;6.308;2023-02-15T14:31:49;9.80;99.90
52397;DHT22;38322;53.108;6.308;2023-02-15T14:34:33;9.80;99.90
52397;DHT22;38322;53.108;6.308;2023-02-15T14:37:03;9.70;99.90
52397;DHT22;38322;53.108;6.308;2023-02-15T14:39:51;9.70;99.90
52397;DHT22;38322;53.108;6.308;2023-02-15T15:16:28;9.00;99.90
52397;DHT22;38322;53.108;6.308;2023-02-15T15:18:55;9.00;99.90
52397;DHT22;38322;53.108;6.308;2023-02-15T15:27:39;8.90;99.90
52397;DHT22;38322;53.108;6.308;2023-02-15T15:32:56;8.70;99.90
52397;DHT22;38322;53.108;6.308;2023-02-15T15:38:27;8.60;99.90
52397;DHT22;38322;53.108;6.308;2023-02-15T15:41:32;8.60;99.90
52397;DHT22;38322;53.108;6.308;2023-02-15T15:44:44;8.60;99.90
52397;DHT22;38322;53.108;6.308;2023-02-15T15:50:15;8.40;99.90
52397;DHT22;38322;53.108;6.308;2023-02-15T15:52:48;8.40;99.90
52397;DHT22;38322;53.108;6.308;2023-02-15T15:55:18;8.30;99.90
52397;DHT22;38322;53.108;6.308;2023-02-15T15:57:48;8.20;99.90
52397;DHT22;38322;53.108;6.308;2023-02-15T16:00:24;8.20;99.90
52397;DHT22;38322;53.108;6.308;2023-02-15T16:02:53;8.20;99.90
52397;DHT22;38322;53.108;6.308;2023-02-15T16:05:19;8.10;99.90
52397;DHT22;38322;53.108;6.308;2023-02-15T16:07:45;8.10;99.90
52397;DHT22;38322;53.108;6.308;2023-02-15T16:10:22;8.00;99.90
52397;DHT22;38322;53.108;6.308;2023-02-15T16:12:49;8.00;99.90
52397;DHT22;38322;53.108;6.308;2023-02-15T16:15:19;7.90;99.90
52397;DHT22;38322;53.108;6.308;2023-02-15T16:17:48;7.80;99.90
52397;DHT22;38322;53.108;6.308;2023-02-15T16:20:28;7.80;99.90
52397;DHT22;38322;53.108;6.308;2023-02-15T16:23:16;7.70;99.90
52397;DHT22;38322;53.108;6.308;2023-02-15T16:28:22;7.50;99.90
52397;DHT22;38322;53.108;6.308;2023-02-15T16:31:06;7.50;99.90
52397;DHT22;38322;53.108;6.308;2023-02-15T16:33:36;7.40;99.90
52397;DHT22;38322;53.108;6.308;2023-02-15T16:36:03;7.40;99.90
52397;DHT22;38322;53.108;6.308;2023-02-15T16:41:16;7.30;99.90
52397;DHT22;38322;53.108;6.308;2023-02-15T16:43:45;7.20;99.90
52397;DHT22;38322;53.108;6.308;2023-02-15T16:48:45;7.10;99.90
52397;DHT22;38322;53.108;6.308;2023-02-15T16:51:20;7.00;99.90
52397;DHT22;38322;53.108;6.308;2023-02-15T16:53:47;7.00;99.90
52397;DHT22;38322;53.108;6.308;2023-02-15T16:56:14;6.90;99.90
52397;DHT22;38322;53.108;6.308;2023-02-15T16:58:44;6.90;99.90
52397;DHT22;38322;53.108;6.308;2023-02-15T17:01:13;6.90;99.90
52397;DHT22;38322;53.108;6.308;2023-02-15T17:03:40;6.80;99.90
52397;DHT22;38322;53.108;6.308;2023-02-15T17:06:26;6.80;99.90
52397;DHT22;38322;53.108;6.308;2023-02-15T17:09:04;6.70;99.90
52397;DHT22;38322;53.108;6.308;2023-02-15T17:11:37;6.70;99.90
52397;DHT22;38322;53.108;6.308;2023-02-15T17:16:36;6.60;99.90
52397;DHT22;38322;53.108;6.308;2023-02-15T17:22:01;6.60;99.90
52397;DHT22;38322;53.108;6.308;2023-02-15T17:26:56;6.50;99.90
52397;DHT22;38322;53.108;6.308;2023-02-15T17:29:31;6.50;99.90
52397;DHT22;38322;53.108;6.308;2023-02-15T17:31:59;6.40;99.90
52397;DHT22;38322;53.108;6.308;2023-02-15T17:37:24;6.40;99.90
52397;DHT22;38322;53.108;6.308;2023-02-15T17:39:50;6.30;99.90
52397;DHT22;38322;53.108;6.308;2023-02-15T17:42:16;6.30;99.90
52397;DHT22;38322;53.108;6.308;2023-02-15T17:44:42;6.30;99.90
52397;DHT22;38322;53.108;6.308;2023-02-15T17:47:17;6.30;99.90
52397;DHT22;38322;53.108;6.308;2023-02-15T17:49:43;6.20;99.90
52397;DHT22;38322;53.108;6.308;2023-02-15T17:52:12;6.20;99.90
52397;DHT22;38322;53.108;6.308;2023-02-15T17:54:40;6.20;99.90
52397;DHT22;38322;53.108;6.308;2023-02-15T17:57:24;6.20;99.90
52397;DHT22;38322;53.108;6.308;2023-02-15T17:59:51;6.20;99.90
52397;DHT22;38322;53.108;6.308;2023-02-15T18:02:36;6.20;99.90
52397;DHT22;38322;53.108;6.308;2023-02-15T18:05:20;6.10;99.90
52397;DHT22;38322;53.108;6.308;2023-02-15T18:08:12;6.10;99.90
52397;DHT22;38322;53.108;6.308;2023-02-15T18:10:57;6.10;99.90
52397;DHT22;38322;53.108;6.308;2023-02-15T18:13:41;6.00;99.90
52397;DHT22;38322;53.108;6.308;2023-02-15T18:16:13;6.00;99.90
52397;DHT22;38322;53.108;6.308;2023-02-15T18:18:40;6.00;99.90
52397;DHT22;38322;53.108;6.308;2023-02-15T18:21:06;6.00;99.90
52397;DHT22;38322;53.108;6.308;2023-02-15T18:23:33;6.00;99.90
52397;DHT22;38322;53.108;6.308;2023-02-15T18:25:58;6.00;99.90
52397;DHT22;38322;53.108;6.308;2023-02-15T18:28:24;6.00;99.90
52397;DHT22;38322;53.108;6.308;2023-02-15T18:30:50;6.00;99.90
52397;DHT22;38322;53.108;6.308;2023-02-15T18:33:31;6.00;99.90
52397;DHT22;38322;53.108;6.308;2023-02-15T18:36:00;6.00;99.90
52397;DHT22;38322;53.108;6.308;2023-02-15T18:38:26;5.90;99.90
52397;DHT22;38322;53.108;6.308;2023-02-15T18:40:52;5.90;99.90
52397;DHT22;38322;53.108;6.308;2023-02-15T18:43:18;5.90;99.90
52397;DHT22;38322;53.108;6.308;2023-02-15T18:45:44;5.90;99.90
52397;DHT22;38322;53.108;6.308;2023-02-15T18:48:10;5.90;99.90
52397;DHT22;38322;53.108;6.308;2023-02-15T18:50:36;5.90;99.90
52397;DHT22;38322;53.108;6.308;2023-02-15T18:53:04;5.80;99.90
52397;DHT22;38322;53.108;6.308;2023-02-15T18:55:31;5.80;99.90
52397;DHT22;38322;53.108;6.308;2023-02-15T18:57:57;5.80;99.90
52397;DHT22;38322;53.108;6.308;2023-02-15T19:00:27;5.70;99.90
52397;DHT22;38322;53.108;6.308;2023-02-15T19:02:54;5.70;99.90
52397;DHT22;38322;53.108;6.308;2023-02-15T19:05:20;5.70;99.90
52397;DHT22;38322;53.108;6.308;2023-02-15T19:07:47;5.70;99.90
52397;DHT22;38322;53.108;6.308;2023-02-15T19:10:19;5.70;99.90
52397;DHT22;38322;53.108;6.308;2023-02-15T19:12:45;5.60;99.90
52397;DHT22;38322;53.108;6.308;2023-02-15T19:15:14;5.60;99.90
52397;DHT22;38322;53.108;6.308;2023-02-15T19:17:41;5.60;99.90
52397;DHT22;38322;53.108;6.308;2023-02-15T19:20:16;5.60;99.90
52397;DHT22;38322;53.108;6.308;2023-02-15T19:22:42;5.60;99.90
52397;DHT22;38322;53.108;6.308;2023-02-15T19:25:16;5.50;99.90
52397;DHT22;38322;53.108;6.308;2023-02-15T19:27:43;5.50;99.90
52397;DHT22;38322;53.108;6.308;2023-02-15T19:30:17;5.60;99.90
52397;DHT22;38322;53.108;6.308;2023-02-15T19:32:44;5.60;99.90
52397;DHT22;38322;53.108;6.308;2023-02-15T19:35:15;5.50;99.90
52397;DHT22;38322;53.108;6.308;2023-02-15T19:37:43;5.60;99.90
52397;DHT22;38322;53.108;6.308;2023-02-15T19:40:22;5.60;99.90
52397;DHT22;38322;53.108;6.308;2023-02-15T19:42:49;5.60;99.90
52397;DHT22;38322;53.108;6.308;2023-02-15T19:45:17;5.60;99.90
52397;DHT22;38322;53.108;6.308;2023-02-15T19:47:43;5.60;99.90
52397;DHT22;38322;53.108;6.308;2023-02-15T19:50:17;5.50;99.90
52397;DHT22;38322;53.108;6.308;2023-02-15T19:52:44;5.60;99.90
52397;DHT22;38322;53.108;6.308;2023-02-15T19:55:25;5.50;99.90
52397;DHT22;38322;53.108;6.308;2023-02-15T19:57:53;5.40;99.90
52397;DHT22;38322;53.108;6.308;2023-02-15T20:00:21;5.60;99.90
52397;DHT22;38322;53.108;6.308;2023-02-15T20:02:48;5.60;99.90
52397;DHT22;38322;53.108;6.308;2023-02-15T20:05:14;5.60;99.90
52397;DHT22;38322;53.108;6.308;2023-02-15T20:07:43;5.60;99.90
52397;DHT22;38322;53.108;6.308;2023-02-15T20:10:20;5.50;99.90
52397;DHT22;38322;53.108;6.308;2023-02-15T20:12:47;5.60;99.90
52397;DHT22;38322;53.108;6.308;2023-02-15T20:15:30;5.50;99.90
52397;DHT22;38322;53.108;6.308;2023-02-15T20:17:57;5.50;99.90
52397;DHT22;38322;53.108;6.308;2023-02-15T20:20:31;5.50;99.90
52397;DHT22;38322;53.108;6.308;2023-02-15T20:22:59;5.50;99.90
52397;DHT22;38322;53.108;6.308;2023-02-15T20:25:27;5.50;99.90
52397;DHT22;38322;53.108;6.308;2023-02-15T20:27:54;5.50;99.90
52397;DHT22;38322;53.108;6.308;2023-02-15T20:30:22;5.50;99.90
52397;DHT22;38322;53.108;6.308;2023-02-15T20:32:49;5.50;99.90
52397;DHT22;38322;53.108;6.308;2023-02-15T20:35:17;5.50;99.90
52397;DHT22;38322;53.108;6.308;2023-02-15T20:37:45;5.60;99.90
52397;DHT22;38322;53.108;6.308;2023-02-15T20:40:19;5.60;99.90
52397;DHT22;38322;53.108;6.308;2023-02-15T20:42:46;5.60;99.90
52397;DHT22;38322;53.108;6.308;2023-02-15T20:47:47;5.60;99.90
52397;DHT22;38322;53.108;6.308;2023-02-15T20:50:17;5.40;99.90
52397;DHT22;38322;53.108;6.308;2023-02-15T20:52:44;5.50;99.90
52397;DHT22;38322;53.108;6.308;2023-02-15T20:55:13;5.60;99.90
52397;DHT22;38322;53.108;6.308;2023-02-15T20:57:39;5.50;99.90
52397;DHT22;38322;53.108;6.308;2023-02-15T21:00:11;5.50;99.90
